Flight Track Log - Related Links

Times and Time Zones

All times are in EDT time to prevent confusion due to time zone crossing. See the N143DE flight status page for this flight to view local times or setup timezone preferences in your user account.

Time Position Orientation Groundspeed Altitude Reporting Facility
EDT Latitude Longitude Course Direction KTS MPH feet Rate Location/Type
Mon 07:22:59 AM 28.4333 -81.3333 270° West 149 171 500  Level Orlando TRACON
Mon 07:23:41 AM 28.4333 -81.3500 270° West 191 220 1,500 1,778 Climbing Orlando TRACON
Mon 07:24:47 AM 28.4333 -81.4167 270° West 173 199 3,700 2,000 Climbing Orlando TRACON
Mon 07:25:47 AM 28.4833 -81.4500 330° Northwest 173 199 5,700 1,800 Climbing Orlando TRACON
Mon 07:26:47 AM 28.5333 -81.4500 360° North 198 228 7,300 1,714 Climbing Orlando TRACON
Mon 07:27:53 AM 28.5833 -81.4500 360° North 197 227 9,300 1,362 Climbing Orlando TRACON
Mon 07:29:52 AM 28.6928 -81.4558 357° North 203 234 11,500 905 Climbing Jacksonville Center
Mon 07:30:52 AM 28.7556 -81.4575 359° North 203 234 12,000 250 Climbing Jacksonville Center
Mon 07:31:52 AM 28.8222 -81.4636 355° North 220 253 12,000  Level Jacksonville Center
Mon 07:32:52 AM 28.8911 -81.4625 North 235 270 12,000  Level Jacksonville Center
Mon 07:33:52 AM 28.9533 -81.4236 29° Northeast 240 276 12,000 50 Level Jacksonville Center
Mon 07:34:52 AM 29.0175 -81.3847 28° Northeast 254 292 12,100 550 Climbing Jacksonville Center
Mon 07:35:52 AM 29.0822 -81.3839 North 236 272 13,100 900 Climbing Jacksonville Center
Mon 07:36:52 AM 29.1428 -81.3900 355° North 226 260 13,900 850 Climbing Jacksonville Center
Mon 07:37:52 AM 29.2033 -81.3939 357° North 219 252 14,800 850 Climbing Jacksonville Center
Mon 07:38:52 AM 29.2619 -81.4072 349° North 219 252 15,600 750 Climbing Jacksonville Center
Mon 07:39:52 AM 29.3228 -81.4133 355° North 218 251 16,300 650 Climbing Jacksonville Center
Mon 07:40:52 AM 29.3753 -81.4389 337° Northwest 217 250 16,900 750 Climbing Jacksonville Center
Mon 07:41:52 AM 29.4339 -81.4642 339° North 217 250 17,800 1,050 Climbing Jacksonville Center
Mon 07:42:52 AM 29.4800 -81.4850 339° North 204 235 19,000 1,100 Climbing Jacksonville Center
Mon 07:43:52 AM 29.5261 -81.5011 343° North 183 211 20,000 850 Climbing Jacksonville Center
Mon 07:44:52 AM 29.5722 -81.5219 339° North 171 197 20,700 750 Climbing Jacksonville Center
Mon 07:45:52 AM 29.6164 -81.5406 340° North 171 197 21,500 750 Climbing Jacksonville Center
Mon 07:46:52 AM 29.6625 -81.5589 341° North 171 197 22,200 650 Climbing Jacksonville Center
Mon 07:47:52 AM 29.7086 -81.5797 339° North 171 197 22,800 400 Climbing Jacksonville Center
Mon 07:48:52 AM 29.7525 -81.5983 340° North 171 197 23,000 100 Climbing Jacksonville Center
Mon 07:49:52 AM 29.8031 -81.6217 338° Northwest 176 203 23,000  Level Jacksonville Center
Mon 07:50:52 AM 29.8575 -81.6425 342° North 187 215 23,000  Level Jacksonville Center
Mon 07:51:52 AM 29.9119 -81.6656 340° North 192 221 23,000  Level Jacksonville Center
Mon 07:52:52 AM 29.9644 -81.6889 339° North 197 227 23,000  Level Jacksonville Center
Mon 07:53:52 AM 30.0208 -81.7122 340° North 203 234 23,000  Level Jacksonville Center
Mon 07:54:52 AM 30.0775 -81.7333 342° North 203 234 23,000  Level Jacksonville Center
Mon 07:55:52 AM 30.1319 -81.7567 340° North 210 242 23,000  Level Jacksonville Center
Mon 07:56:52 AM 30.1886 -81.7822 339° North 210 242 23,000  Level Jacksonville Center
Mon 07:57:52 AM 30.2431 -81.8081 338° Northwest 210 242 23,000  Level Jacksonville Center
Mon 07:58:52 AM 30.2975 -81.8269 343° North 216 249 23,000  Level Jacksonville Center
Mon 07:59:52 AM 30.3519 -81.8528 338° Northwest 210 242 23,000  Level Jacksonville Center
Mon 08:00:52 AM 30.4106 -81.8736 343° North 210 242 23,000  Level Jacksonville Center
Mon 08:01:52 AM 30.4631 -81.9019 335° Northwest 210 242 23,000  Level Jacksonville Center
Mon 08:02:52 AM 30.5197 -81.9233 342° North 215 247 23,000  Level Jacksonville Center
Mon 08:03:52 AM 30.5742 -81.9517 336° Northwest 215 247 23,000  Level Jacksonville Center
Mon 08:04:52 AM 30.6286 -81.9753 340° North 215 247 23,000  Level Jacksonville Center
Mon 08:05:52 AM 30.6853 -81.9989 340° North 215 247 23,000  Level Jacksonville Center
Mon 08:06:52 AM 30.7375 -82.0225 339° North 215 247 23,000  Level Jacksonville Center
Mon 08:07:52 AM 30.7942 -82.0486 338° Northwest 215 247 23,000  Level Jacksonville Center
Mon 08:08:52 AM 30.8486 -82.0700 341° North 215 247 23,000  Level Jacksonville Center
Mon 08:09:52 AM 30.9050 -82.0961 338° Northwest 215 247 23,000 -300 Level Jacksonville Center
Mon 08:10:52 AM 30.9617 -82.1222 338° Northwest 215 247 22,400 -450 Descending Jacksonville Center
Mon 08:11:52 AM 31.0244 -82.1483 340° North 221 254 22,100 -150 Descending Jacksonville Center
Mon 08:12:52 AM 31.0872 -82.1769 339° North 227 261 22,100 -50 Level Jacksonville Center
Mon 08:13:52 AM 31.1458 -82.2031 339° North 227 261 22,000 -50 Descending Jacksonville Center
Mon 08:14:52 AM 31.2022 -82.2247 342° North 227 261 22,000  Level Jacksonville Center
Mon 08:15:52 AM 31.2608 -82.2508 339° North 227 261 22,000  Level Jacksonville Center
Mon 08:16:52 AM 31.3194 -82.2772 339° North 227 261 22,000  Level Jacksonville Center
Mon 08:17:52 AM 31.3758 -82.2989 342° North 222 255 22,000 50 Level Jacksonville Center
Mon 08:18:52 AM 31.4344 -82.3278 337° Northwest 222 255 22,100 50 Climbing Jacksonville Center
Mon 08:19:52 AM 31.4953 -82.3517 341° North 222 255 22,100  Level Jacksonville Center
Mon 08:20:52 AM 31.5517 -82.3781 338° Northwest 222 255 22,100  Level Jacksonville Center
Mon 08:21:52 AM 31.6144 -82.4047 340° North 227 261 22,100  Level Jacksonville Center
Mon 08:22:52 AM 31.6708 -82.4286 340° North 227 261 22,100  Level Jacksonville Center
Mon 08:23:52 AM 31.7294 -82.4553 339° North 227 261 22,100  Level Jacksonville Center
Mon 08:24:52 AM 31.7900 -82.4819 339° North 227 261 22,100  Level Jacksonville Center
Mon 08:25:52 AM 31.8506 -82.5086 339° North 233 268 22,100  Level Jacksonville Center
Mon 08:26:52 AM 31.9114 -82.5378 338° Northwest 233 268 22,100  Level Jacksonville Center
Mon 08:27:52 AM 31.9678 -82.5619 340° North 233 268 22,100  Level Jacksonville Center
Mon 08:28:52 AM 32.0283 -82.5886 340° North 233 268 22,100  Level Jacksonville Center
Mon 08:29:52 AM 32.0869 -82.6178 337° Northwest 233 268 22,100  Level Jacksonville Center
Mon 08:30:31 AM 32.1289 -82.6358 340° North 232 267 22,100  Level Atlanta Center
Mon 08:31:31 AM 32.1878 -82.6644 338° Northwest 227 261 22,100  Level Atlanta Center
Mon 08:32:31 AM 32.2486 -82.6906 340° North 227 261 22,100  Level Atlanta Center
Mon 08:33:31 AM 32.3114 -82.7192 339° North 232 267 22,100  Level Atlanta Center
Mon 08:34:31 AM 32.3703 -82.7453 339° North 232 267 22,100  Level Atlanta Center
Mon 08:35:31 AM 32.4308 -82.7739 338° Northwest 232 267 22,100  Level Atlanta Center
Mon 08:36:31 AM 32.4917 -82.8003 340° North 232 267 22,100  Level Atlanta Center
Mon 08:37:31 AM 32.5547 -82.8264 341° North 232 267 22,100 -400 Level Atlanta Center
Mon 08:38:31 AM 32.6072 -82.8750 322° Northwest 232 267 21,300 -900 Descending Atlanta Center
Mon 08:39:31 AM 32.6622 -82.9311 319° Northwest 249 287 20,300 -950 Descending Atlanta Center
Mon 08:40:31 AM 32.7211 -82.9894 320° Northwest 257 296 19,400 -1,050 Descending Atlanta Center
Mon 08:41:31 AM 32.7800 -83.0481 320° Northwest 270 311 18,200 -1,200 Descending Atlanta Center
Mon 08:42:31 AM 32.8389 -83.1092 319° Northwest 270 311 17,000 -1,400 Descending Atlanta Center
Mon 08:43:31 AM 32.9019 -83.1703 321° Northwest 277 319 15,400 -1,500 Descending Atlanta Center
Mon 08:44:31 AM 32.9608 -83.2292 320° Northwest 282 325 14,000 -1,400 Descending Atlanta Center
Mon 08:45:31 AM 33.0197 -83.2956 317° Northwest 288 331 12,600 -1,300 Descending Atlanta Center
Mon 08:46:31 AM 33.0742 -83.3522 319° Northwest 288 331 11,400 -800 Descending Atlanta Center
Mon 08:47:31 AM 33.1289 -83.4064 320° Northwest 280 322 11,000 -600 Descending Atlanta Center
Mon 08:48:31 AM 33.1814 -83.4656 317° Northwest 264 304 10,200 -850 Descending Atlanta Center
Mon 08:49:31 AM 33.2400 -83.5197 322° Northwest 269 310 9,300 -609 Descending Atlanta Center
Mon 08:51:58 AM 33.3833 -83.6667 319° Northwest 257 296 8,100 -348 Descending Atlanta TRACON
Mon 08:52:58 AM 33.4500 -83.7000 337° Northwest 253 291 8,100 -474 Level Atlanta TRACON
Mon 08:53:52 AM 33.5167 -83.7000 360° North 257 296 7,200 -900 Descending Atlanta TRACON
Mon 08:54:58 AM 33.5833 -83.7167 348° North 259 298 6,300 -857 Descending Atlanta TRACON
Mon 08:55:58 AM 33.6500 -83.7333 348° North 259 298 5,400 -900 Descending Atlanta TRACON
Mon 08:56:58 AM 33.7167 -83.8000 320° Northwest 255 293 4,500 -700 Descending Atlanta TRACON
Mon 08:57:58 AM 33.7667 -83.8500 320° Northwest 247 284 4,000 -261 Descending Atlanta TRACON
Mon 08:58:53 AM 33.8167 -83.8833 331° Northwest 231 266 4,000  Level Atlanta TRACON
Mon 08:59:58 AM 33.8667 -83.9333 320° Northwest 222 255 4,000  Level Atlanta TRACON
Mon 09:00:58 AM 33.9167 -83.9833 320° Northwest 221 254 4,000  Level Atlanta TRACON
Mon 09:01:58 AM 33.9667 -84.0333 320° Northwest 221 254 4,000  Level Atlanta TRACON
Mon 09:02:52 AM 34.0000 -84.0833 309° West 227 261 4,000  Level Atlanta TRACON
Mon 09:03:52 AM 34.0167 -84.1500 287° West 230 265 4,000  Level Atlanta TRACON
Mon 09:04:52 AM 34.0500 -84.2167 301° West 229 264 4,000  Level Atlanta TRACON
Mon 09:05:58 AM 34.0667 -84.3000 284° West 227 261 4,000  Level Atlanta TRACON
Mon 09:06:58 AM 34.1000 -84.3667 301° West 228 262 4,000  Level Atlanta TRACON
Mon 09:07:53 AM 34.1000 -84.4333 270° West 231 266 4,000 -53 Level Atlanta TRACON
Mon 09:08:52 AM 34.1000 -84.5167 270° West 235 270 3,900 -353 Descending Atlanta TRACON
Mon 09:09:52 AM 34.1000 -84.6000 270° West 236 272 3,300 -400 Descending Atlanta TRACON
Mon 09:10:52 AM 34.1000 -84.6833 270° West 235 270 3,100 -150 Descending Atlanta TRACON
Mon 09:11:52 AM 34.1000 -84.7500 270° West 193 222 3,000 -50 Descending Atlanta TRACON
Mon 09:12:53 AM 34.1000 -84.8000 270° West 166 191 3,000 25 Level Atlanta TRACON
Mon 09:15:53 AM 34.0167 -84.8167 189° South 139 160 3,100  Climbing Atlanta TRACON
Mon 09:16:53 AM 34.0000 -84.7833 121° Southeast 127 146 3,000 -200 Descending Atlanta TRACON
Mon 09:17:53 AM 34.0000 -84.7333 90° East 132 152 2,700 -150 Descending Atlanta TRACON
Mon 09:18:53 AM 34.0167 -84.7000 59° Northeast 92 106 2,700 -300 Level Atlanta TRACON
Mon 09:19:53 AM 34.0167 -84.6667 90° East 120 138 2,100 -600 Descending Atlanta TRACON

Login

Don't have an account? Register now (free) for customized features, flight alerts, and more!